Time;durP1;ratioP1;P1;durP2;ratioP2;P2;SDS_P1;SDS_P2;PMS_P1;PMS_P2;Temp;Humidity;BMP_temperature;BMP_pressure;BME280_temperature;BME280_humidity;BME280_pressure;Samples;Min_cycle;Max_cycle;Signal;HPM_P1;HPM_P2
2021/12/27 00:01:55;;;;;;;77.00;12.00;;;;;;;0.72;100.00;97084.94;5093069;28;20598;-74
2021/12/27 00:04:22;;;;;;;63.00;12.20;;;;;;;0.74;100.00;97082.94;5092102;28;20627;-74
2021/12/27 00:06:49;;;;;;;70.70;12.70;;;;;;;0.78;100.00;97089.31;5094081;28;20609;-74
2021/12/27 00:09:16;;;;;;;65.13;14.10;;;;;;;0.85;100.00;97089.25;5096489;28;20640;-75
2021/12/27 00:11:43;;;;;;;65.63;13.63;;;;;;;0.84;100.00;97087.63;5094159;28;20605;-75
2021/12/27 00:14:11;;;;;;;49.70;14.13;;;;;;;0.81;100.00;97086.25;5093523;28;20628;-74
2021/12/27 00:16:37;;;;;;;43.53;11.67;;;;;;;0.64;100.00;97097.59;5093392;28;20651;-75
2021/12/27 00:19:04;;;;;;;74.60;13.57;;;;;;;0.72;100.00;97079.69;5096917;28;20626;-75
2021/12/27 00:21:30;;;;;;;52.67;12.43;;;;;;;0.80;100.00;97068.91;5096932;28;20654;-74
2021/12/27 00:23:57;;;;;;;62.63;12.37;;;;;;;0.69;100.00;97069.63;5096544;28;20586;-75
2021/12/27 00:26:24;;;;;;;54.13;12.50;;;;;;;0.91;100.00;97070.78;5091461;28;20609;-75
2021/12/27 00:28:51;;;;;;;74.27;14.40;;;;;;;0.95;100.00;97073.75;5093184;28;20727;-74
2021/12/27 00:31:19;;;;;;;50.23;11.23;;;;;;;0.89;100.00;97070.19;5094568;28;20680;-73
2021/12/27 00:33:46;;;;;;;49.47;12.87;;;;;;;0.67;100.00;97071.69;5093180;28;20639;-73
2021/12/27 00:36:13;;;;;;;58.23;13.40;;;;;;;0.74;100.00;97076.88;5092785;28;20605;-74
2021/12/27 00:38:39;;;;;;;36.63;9.37;;;;;;;0.76;100.00;97078.25;5092120;28;20637;-74
2021/12/27 00:41:06;;;;;;;65.40;12.33;;;;;;;0.66;100.00;97075.31;5099638;28;20616;-74
2021/12/27 00:43:33;;;;;;;38.77;11.90;;;;;;;0.65;100.00;97073.72;5100334;28;20691;-75
2021/12/27 00:45:59;;;;;;;57.73;11.87;;;;;;;0.64;100.00;97066.88;5088183;28;20644;-75
2021/12/27 00:48:27;;;;;;;37.13;12.37;;;;;;;0.72;100.00;97073.63;5086633;28;20597;-75
2021/12/27 00:50:54;;;;;;;50.00;11.40;;;;;;;0.73;100.00;97075.25;5087996;28;20733;-76
2021/12/27 00:53:21;;;;;;;98.87;14.50;;;;;;;0.77;100.00;97071.97;5097633;28;20594;-74
2021/12/27 00:55:48;;;;;;;55.70;13.00;;;;;;;0.71;100.00;97082.56;5089452;28;20574;-74
2021/12/27 00:58:14;;;;;;;59.40;12.87;;;;;;;0.74;100.00;97082.94;5099525;28;20610;-76
2021/12/27 01:00:41;;;;;;;70.23;14.33;;;;;;;0.72;100.00;97089.41;5097463;28;20607;-77
2021/12/27 01:03:08;;;;;;;74.07;12.20;;;;;;;0.67;100.00;97091.91;5095061;28;20609;-73
2021/12/27 01:05:36;;;;;;;103.53;14.27;;;;;;;0.69;100.00;97089.84;5096342;28;21064;-75
2021/12/27 01:08:05;;;;;;;63.53;12.40;;;;;;;0.73;100.00;97075.25;5099351;28;20604;-74
2021/12/27 01:13:22;;;;;;;41.63;11.80;;;;;;;0.72;100.00;97084.16;5095140;28;20613;-75
2021/12/27 01:16:03;;;;;;;71.00;10.30;;;;;;;0.71;100.00;97087.81;5096302;28;20616;-75
2021/12/27 01:18:29;;;;;;;55.47;10.30;;;;;;;0.79;100.00;97080.44;5099226;28;20799;-74
2021/12/27 01:20:58;;;;;;;54.23;10.63;;;;;;;0.68;100.00;97083.78;5096440;28;20612;-74
2021/12/27 01:23:24;;;;;;;90.10;13.30;;;;;;;0.70;100.00;97073.06;5101282;28;20604;-75
2021/12/27 01:25:51;;;;;;;47.47;10.93;;;;;;;0.69;100.00;97074.88;5097339;28;20720;-75
2021/12/27 01:28:19;;;;;;;71.50;15.00;;;;;;;0.77;100.00;97071.97;5096123;28;20608;-74
2021/12/27 01:30:47;;;;;;;71.40;13.10;;;;;;;0.75;100.00;97073.19;5096991;28;20637;-74
2021/12/27 01:33:14;;;;;;;53.07;11.33;;;;;;;0.56;100.00;97066.38;5099409;28;20604;-74
2021/12/27 01:35:41;;;;;;;50.53;11.77;;;;;;;0.55;100.00;97068.19;5098108;28;20662;-75
2021/12/27 01:38:11;;;;;;;50.67;13.63;;;;;;;0.63;100.00;97061.81;5095412;28;21130;-74
2021/12/27 01:40:38;;;;;;;62.17;14.67;;;;;;;0.71;100.00;97048.41;5102858;28;20674;-74
2021/12/27 01:43:08;;;;;;;64.03;14.67;;;;;;;0.74;100.00;97047.97;5095126;28;20631;-74
2021/12/27 01:45:38;;;;;;;71.23;14.60;;;;;;;0.69;100.00;97048.63;5093672;28;20621;-74
2021/12/27 01:48:07;;;;;;;53.07;12.63;;;;;;;0.68;100.00;97047.00;5096943;28;20606;-74
2021/12/27 01:50:34;;;;;;;83.23;15.30;;;;;;;0.73;100.00;97047.16;5096593;28;20644;-74
2021/12/27 01:53:02;;;;;;;72.07;14.33;;;;;;;0.63;100.00;97054.75;5092802;28;20627;-74
2021/12/27 01:55:30;;;;;;;61.67;14.17;;;;;;;0.68;100.00;97049.63;5100058;28;21033;-75
2021/12/27 01:57:57;;;;;;;62.27;14.10;;;;;;;0.67;100.00;97039.34;5098406;28;20628;-75
2021/12/27 02:00:24;;;;;;;55.53;13.40;;;;;;;0.69;100.00;97043.34;5098159;28;20607;-74
2021/12/27 02:02:50;;;;;;;66.73;13.80;;;;;;;0.67;100.00;97040.16;5094656;28;20677;-75
2021/12/27 02:05:17;;;;;;;46.23;11.70;;;;;;;0.75;100.00;97033.78;5093456;28;20605;-75
2021/12/27 02:07:44;;;;;;;46.57;11.70;;;;;;;0.75;100.00;97031.97;5094936;28;20639;-74
2021/12/27 02:10:12;;;;;;;39.57;12.10;;;;;;;0.69;100.00;97032.84;5097040;28;20640;-74
2021/12/27 02:12:41;;;;;;;100.60;16.50;;;;;;;0.64;100.00;97032.72;5097474;28;20671;-74
2021/12/27 02:15:09;;;;;;;41.00;13.03;;;;;;;0.64;100.00;97031.91;5093170;28;20631;-73
2021/12/27 02:17:38;;;;;;;58.87;15.20;;;;;;;0.66;100.00;97020.16;5093233;28;20631;-74
2021/12/27 02:20:08;;;;;;;57.07;14.70;;;;;;;0.64;100.00;97024.03;5097031;28;20605;-74
2021/12/27 02:22:37;;;;;;;51.80;13.17;;;;;;;0.51;100.00;97017.13;5098545;28;20626;-74
2021/12/27 02:25:06;;;;;;;74.73;15.03;;;;;;;0.58;100.00;97012.59;5098247;28;20677;-74
2021/12/27 02:27:33;;;;;;;81.87;13.97;;;;;;;0.66;100.00;97014.09;5096767;28;20686;-73
2021/12/27 02:30:00;;;;;;;62.03;13.13;;;;;;;0.62;100.00;97021.59;5094520;28;21195;-74
2021/12/27 02:32:26;;;;;;;50.80;12.10;;;;;;;0.68;100.00;97027.81;5094965;28;20597;-75
2021/12/27 02:34:53;;;;;;;55.80;13.17;;;;;;;0.79;100.00;97038.38;5097822;28;20590;-74
2021/12/27 02:37:21;;;;;;;63.43;13.93;;;;;;;0.67;100.00;97034.91;5101364;28;21087;-74
2021/12/27 02:39:48;;;;;;;74.70;12.30;;;;;;;0.55;100.00;97036.69;5096466;28;20597;-74
2021/12/27 02:42:17;;;;;;;47.60;12.10;;;;;;;0.59;100.00;97019.41;5095675;28;20604;-74
2021/12/27 02:44:44;;;;;;;83.10;14.87;;;;;;;0.53;100.00;97015.06;5097730;28;20707;-74
2021/12/27 02:47:11;;;;;;;49.30;12.70;;;;;;;0.54;100.00;97024.56;5099256;28;20611;-75
2021/12/27 02:49:37;;;;;;;53.93;13.47;;;;;;;0.50;100.00;97018.13;5096838;28;20608;-74
2021/12/27 02:52:04;;;;;;;71.47;14.73;;;;;;;0.63;100.00;97017.97;5093040;28;20627;-74
2021/12/27 02:54:32;;;;;;;92.27;14.63;;;;;;;0.50;100.00;97015.50;5096645;28;20620;-74
2021/12/27 02:56:59;;;;;;;66.57;15.30;;;;;;;0.59;100.00;97022.06;5097261;28;20600;-74
2021/12/27 02:59:25;;;;;;;70.80;17.37;;;;;;;0.56;100.00;97019.88;5095483;28;20592;-74
2021/12/27 03:01:52;;;;;;;50.90;11.83;;;;;;;0.42;100.00;97007.94;5094300;28;20620;-74
2021/12/27 03:04:19;;;;;;;65.90;16.97;;;;;;;0.47;100.00;97011.50;5092269;28;20613;-75
2021/12/27 03:06:45;;;;;;;91.30;14.83;;;;;;;0.44;100.00;97013.75;5093910;28;20610;-74
2021/12/27 03:09:12;;;;;;;103.90;17.60;;;;;;;0.45;100.00;97020.63;5096887;28;20612;-74
2021/12/27 03:11:41;;;;;;;86.20;14.70;;;;;;;0.59;100.00;97011.53;5095989;28;20636;-74
2021/12/27 03:14:07;;;;;;;67.27;15.03;;;;;;;0.49;100.00;97016.53;5092240;28;20605;-74
2021/12/27 03:16:34;;;;;;;64.70;14.03;;;;;;;0.56;100.00;97019.88;5093521;28;20605;-74
2021/12/27 03:19:01;;;;;;;78.00;17.20;;;;;;;0.54;100.00;97014.84;5084642;28;20620;-74
2021/12/27 03:21:28;;;;;;;77.03;14.40;;;;;;;0.42;100.00;97007.94;5091732;28;20610;-74
2021/12/27 03:23:55;;;;;;;65.10;15.90;;;;;;;0.42;100.00;97011.38;5097859;28;20647;-74
2021/12/27 03:26:22;;;;;;;64.67;14.27;;;;;;;0.42;100.00;97003.50;5094097;28;21513;-74
2021/12/27 03:28:51;;;;;;;76.20;12.27;;;;;;;0.44;100.00;96998.81;5096756;28;20628;-74
2021/12/27 03:31:19;;;;;;;90.90;15.20;;;;;;;0.42;100.00;97005.31;5096113;28;20709;-74
2021/12/27 03:33:46;;;;;;;77.53;14.47;;;;;;;0.45;100.00;97000.41;5094331;28;20998;-74
2021/12/27 03:36:13;;;;;;;67.10;16.30;;;;;;;0.49;100.00;97006.03;5091817;28;20597;-74
2021/12/27 03:38:42;;;;;;;93.77;14.80;;;;;;;0.49;100.00;97000.78;5092237;28;20605;-74
2021/12/27 03:41:16;;;;;;;76.40;14.53;;;;;;;0.55;100.00;97013.03;5096199;28;20593;-74
2021/12/27 03:43:43;;;;;;;69.03;14.80;;;;;;;0.49;100.00;97004.22;5093831;28;21240;-74
2021/12/27 03:46:11;;;;;;;64.87;14.07;;;;;;;0.52;100.00;96995.91;5092590;28;20620;-74
2021/12/27 03:48:39;;;;;;;100.97;17.50;;;;;;;0.50;100.00;96997.13;5093844;28;20659;-74
2021/12/27 03:51:06;;;;;;;56.23;12.03;;;;;;;0.41;100.00;96993.19;5095016;28;20644;-74
2021/12/27 03:53:33;;;;;;;74.50;15.13;;;;;;;0.44;100.00;96995.38;5099268;28;20620;-74
2021/12/27 03:56:00;;;;;;;44.83;10.77;;;;;;;0.44;100.00;96990.13;5084689;28;20597;-74
2021/12/27 03:58:30;;;;;;;62.00;17.47;;;;;;;0.54;100.00;96998.28;5092281;28;21079;-74
2021/12/27 04:01:10;;;;;;;76.50;17.40;;;;;;;0.37;100.00;96992.81;5091940;28;21201;-74
2021/12/27 04:03:38;;;;;;;57.97;16.93;;;;;;;0.44;100.00;96992.75;5088538;28;21292;-73
2021/12/27 04:06:05;;;;;;;66.70;17.70;;;;;;;0.42;100.00;97000.06;5092444;28;20609;-74
2021/12/27 04:08:31;;;;;;;73.03;14.13;;;;;;;0.49;100.00;96998.97;5091923;28;20683;-73
2021/12/27 04:10:58;;;;;;;58.50;15.83;;;;;;;0.45;100.00;96987.28;5095936;28;20656;-73
2021/12/27 04:13:25;;;;;;;61.20;14.37;;;;;;;0.44;100.00;97000.63;5096836;28;20596;-73
2021/12/27 04:15:52;;;;;;;56.67;14.30;;;;;;;0.51;100.00;96996.91;5098542;28;21049;-74
2021/12/27 04:18:21;;;;;;;87.50;15.77;;;;;;;0.53;100.00;97004.56;5098153;28;20601;-74
2021/12/27 04:20:49;;;;;;;70.20;15.03;;;;;;;0.49;100.00;97008.66;5100350;28;20717;-75
2021/12/27 04:23:16;;;;;;;70.77;15.03;;;;;;;0.51;100.00;97002.16;5107421;28;20609;-74
2021/12/27 04:25:44;;;;;;;79.17;15.00;;;;;;;0.48;100.00;97007.06;5100214;28;20601;-74
2021/12/27 04:28:11;;;;;;;67.27;14.70;;;;;;;0.55;100.00;97005.16;5096315;28;20632;-75
2021/12/27 04:30:38;;;;;;;74.87;15.57;;;;;;;0.49;100.00;97003.41;5097227;28;20651;-75
2021/12/27 04:33:05;;;;;;;79.97;17.70;;;;;;;0.42;100.00;96995.59;5100586;28;20623;-74
2021/12/27 04:35:32;;;;;;;74.73;18.33;;;;;;;0.45;100.00;97004.88;5099635;28;20612;-74
2021/12/27 04:38:01;;;;;;;60.93;13.87;;;;;;;0.44;100.00;97008.50;5096014;28;21021;-74
2021/12/27 04:40:31;;;;;;;65.50;16.40;;;;;;;0.46;100.00;97011.72;5097309;28;20597;-73
2021/12/27 04:43:00;;;;;;;67.10;15.73;;;;;;;0.52;100.00;97002.97;5098695;28;20608;-73
2021/12/27 04:45:27;;;;;;;96.87;17.00;;;;;;;0.37;100.00;97007.81;5099690;28;20613;-74
2021/12/27 04:47:54;;;;;;;70.93;16.67;;;;;;;0.32;100.00;97003.19;5096984;28;20621;-74
2021/12/27 04:50:21;;;;;;;61.50;12.07;;;;;;;0.30;100.00;96996.56;5096586;28;20605;-74
2021/12/27 04:52:48;;;;;;;101.70;17.30;;;;;;;0.41;100.00;96998.44;5101792;28;20707;-74
2021/12/27 04:55:16;;;;;;;85.53;17.53;;;;;;;0.39;100.00;96990.81;5100326;28;20626;-74
2021/12/27 04:57:42;;;;;;;56.47;14.00;;;;;;;0.49;100.00;96991.09;5099417;28;20878;-74
2021/12/27 05:00:10;;;;;;;58.13;18.83;;;;;;;0.39;100.00;96982.09;5095836;28;21197;-74
2021/12/27 05:02:37;;;;;;;49.33;15.43;;;;;;;0.28;100.00;96988.91;5095929;28;20609;-74
2021/12/27 05:05:04;;;;;;;99.80;18.60;;;;;;;0.41;100.00;96987.94;5098618;28;20616;-74
2021/12/27 05:07:31;;;;;;;74.07;18.47;;;;;;;0.36;100.00;96985.19;5097763;28;20608;-74
2021/12/27 05:09:57;;;;;;;69.30;17.40;;;;;;;0.37;100.00;96995.44;5094391;28;21271;-74
2021/12/27 05:12:26;;;;;;;71.53;18.10;;;;;;;0.37;100.00;96984.16;5095520;28;21315;-74
2021/12/27 05:14:53;;;;;;;63.00;17.27;;;;;;;0.31;100.00;96995.56;5098187;28;21482;-74
2021/12/27 05:17:20;;;;;;;63.03;15.80;;;;;;;0.42;100.00;96995.59;5098109;28;20716;-74
2021/12/27 05:19:46;;;;;;;89.17;19.43;;;;;;;0.40;100.00;96986.34;5096880;28;20605;-74
2021/12/27 05:22:13;;;;;;;68.43;17.70;;;;;;;0.52;100.00;96995.09;5096583;28;20605;-75
2021/12/27 05:24:41;;;;;;;56.27;15.40;;;;;;;0.48;100.00;96996.53;5089744;28;20616;-75
2021/12/27 05:27:09;;;;;;;90.50;18.30;;;;;;;0.48;100.00;96997.34;5097224;28;20631;-75
2021/12/27 05:29:37;;;;;;;100.83;18.73;;;;;;;0.52;100.00;97005.59;5099605;28;20604;-76
2021/12/27 05:32:04;;;;;;;71.27;16.20;;;;;;;0.53;100.00;96997.47;5095882;28;20645;-75
2021/12/27 05:34:33;;;;;;;78.97;18.30;;;;;;;0.49;100.00;96995.53;5095520;28;20601;-75
2021/12/27 05:36:59;;;;;;;55.83;15.93;;;;;;;0.48;100.00;96991.28;5099011;28;20585;-74
2021/12/27 05:39:26;;;;;;;63.07;11.53;;;;;;;0.39;100.00;96997.88;5098553;28;20627;-75
2021/12/27 05:41:53;;;;;;;72.90;17.03;;;;;;;0.36;100.00;96985.19;5096067;28;20654;-75
2021/12/27 05:44:19;;;;;;;65.83;17.57;;;;;;;0.32;100.00;96990.06;5093593;28;20617;-74
2021/12/27 05:46:47;;;;;;;80.97;20.97;;;;;;;0.34;100.00;96982.75;5095240;28;20651;-74
2021/12/27 05:49:15;;;;;;;75.87;20.67;;;;;;;0.27;100.00;96986.50;5097709;28;21083;-73
2021/12/27 05:51:43;;;;;;;77.87;18.43;;;;;;;0.25;100.00;96980.69;5097908;28;20660;-74
2021/12/27 05:54:10;;;;;;;96.67;22.10;;;;;;;0.30;100.00;96989.50;5098474;28;20605;-74
2021/12/27 05:56:37;;;;;;;67.77;16.07;;;;;;;0.35;100.00;96975.69;5094526;28;20614;-75
2021/12/27 05:59:04;;;;;;;98.93;18.70;;;;;;;0.42;100.00;96987.72;5098635;28;20596;-74
2021/12/27 06:01:30;;;;;;;68.20;18.93;;;;;;;0.41;100.00;96991.38;5097253;28;20624;-74
2021/12/27 06:03:59;;;;;;;80.87;21.80;;;;;;;0.35;100.00;96973.06;5093559;28;20605;-74
2021/12/27 06:06:26;;;;;;;73.37;15.10;;;;;;;0.38;100.00;96972.63;5093704;28;20622;-74
2021/12/27 06:08:54;;;;;;;79.23;19.40;;;;;;;0.29;100.00;96972.13;5097551;28;20613;-75
2021/12/27 06:11:21;;;;;;;77.83;20.30;;;;;;;0.43;100.00;96978.03;5098830;28;20636;-74
2021/12/27 06:13:48;;;;;;;58.20;20.73;;;;;;;0.32;100.00;96984.00;5096586;28;20627;-74
2021/12/27 06:16:14;;;;;;;75.00;22.27;;;;;;;0.35;100.00;96981.75;5093505;28;20622;-74
2021/12/27 06:18:41;;;;;;;58.37;20.53;;;;;;;0.34;100.00;96979.34;5095371;28;20605;-74
2021/12/27 06:21:09;;;;;;;69.20;17.50;;;;;;;0.25;100.00;96988.56;5098482;28;20655;-74
2021/12/27 06:23:36;;;;;;;68.77;17.40;;;;;;;0.25;100.00;96983.31;5092988;28;21302;-75
2021/12/27 06:26:03;;;;;;;82.73;21.47;;;;;;;0.31;100.00;96980.56;5093894;28;20605;-75
2021/12/27 06:28:31;;;;;;;70.30;18.80;;;;;;;0.38;100.00;96983.94;5093647;28;20613;-75
2021/12/27 06:30:58;;;;;;;72.13;21.37;;;;;;;0.30;100.00;96986.06;5097696;28;20605;-75
2021/12/27 06:33:25;;;;;;;71.70;19.90;;;;;;;0.15;100.00;96988.25;5097035;28;20635;-74
2021/12/27 06:35:51;;;;;;;80.40;22.60;;;;;;;0.26;100.00;96993.56;5095554;28;20600;-74
2021/12/27 06:38:20;;;;;;;72.40;23.33;;;;;;;0.29;100.00;96989.69;5093244;28;20644;-74
2021/12/27 06:40:47;;;;;;;62.50;19.80;;;;;;;0.25;100.00;96989.34;5095713;28;20636;-75
2021/12/27 06:43:14;;;;;;;64.13;20.70;;;;;;;0.15;100.00;96985.63;5101121;28;20605;-75
2021/12/27 06:45:41;;;;;;;90.57;21.43;;;;;;;0.17;100.00;96975.72;5100817;28;20741;-74
2021/12/27 06:48:08;;;;;;;87.50;19.27;;;;;;;0.30;100.00;96972.94;5100624;28;20658;-74
2021/12/27 06:50:34;;;;;;;84.97;19.47;;;;;;;0.34;100.00;96964.38;5103384;28;20643;-74
2021/12/27 06:53:01;;;;;;;87.87;22.50;;;;;;;0.30;100.00;96967.69;5095062;28;20663;-75
2021/12/27 06:55:29;;;;;;;70.87;21.90;;;;;;;0.26;100.00;96964.69;5099116;28;20611;-77
2021/12/27 06:57:56;;;;;;;83.23;19.20;;;;;;;0.29;100.00;96976.56;5099820;28;20639;-75
2021/12/27 07:00:23;;;;;;;82.23;19.97;;;;;;;0.32;100.00;96970.88;5100514;28;20665;-74
2021/12/27 07:02:49;;;;;;;77.30;17.03;;;;;;;0.26;100.00;96974.38;5102954;28;20654;-74
2021/12/27 07:05:17;;;;;;;54.73;18.07;;;;;;;0.32;100.00;96987.44;5093397;28;20609;-74
2021/12/27 07:07:44;;;;;;;80.33;20.20;;;;;;;0.40;100.00;96986.34;5096042;28;20613;-75
2021/12/27 07:10:13;;;;;;;64.27;17.83;;;;;;;0.29;100.00;96987.88;5099080;28;20626;-75
2021/12/27 07:12:41;;;;;;;86.43;19.60;;;;;;;0.44;100.00;96971.72;5093334;28;20653;-74
2021/12/27 07:15:08;;;;;;;96.13;20.37;;;;;;;0.42;100.00;96979.84;5096137;28;20651;-75
2021/12/27 07:17:35;;;;;;;67.87;17.63;;;;;;;0.41;100.00;96977.44;5096371;28;20612;-74
2021/12/27 07:20:02;;;;;;;80.30;21.23;;;;;;;0.40;100.00;96981.88;5085700;28;20640;-74
2021/12/27 07:22:30;;;;;;;61.97;16.30;;;;;;;0.55;100.00;96989.38;5089668;28;20615;-74
2021/12/27 07:24:56;;;;;;;84.13;23.17;;;;;;;0.40;100.00;96989.75;5089130;28;20608;-75
2021/12/27 07:27:23;;;;;;;64.30;20.87;;;;;;;0.42;100.00;96994.81;5096444;28;20654;-75
2021/12/27 07:29:51;;;;;;;73.87;19.20;;;;;;;0.56;100.00;97000.69;5093741;28;20597;-75
2021/12/27 07:32:18;;;;;;;85.63;20.73;;;;;;;0.41;100.00;96985.31;5092307;28;20642;-74
2021/12/27 07:34:46;;;;;;;111.40;22.30;;;;;;;0.39;100.00;96987.38;5093886;28;20609;-75
2021/12/27 07:37:15;;;;;;;107.80;23.37;;;;;;;0.43;100.00;96991.94;5097204;28;20604;-74
2021/12/27 07:39:42;;;;;;;100.73;19.63;;;;;;;0.47;100.00;96992.31;5095247;28;20597;-74
2021/12/27 07:42:09;;;;;;;79.97;18.07;;;;;;;0.41;100.00;96987.94;5093375;28;21280;-74
2021/12/27 07:44:36;;;;;;;89.80;21.80;;;;;;;0.39;100.00;96979.50;5093790;28;20617;-75
2021/12/27 07:47:05;;;;;;;82.80;23.13;;;;;;;0.40;100.00;96984.50;5098813;28;20611;-74
2021/12/27 07:49:32;;;;;;;70.87;20.70;;;;;;;0.40;100.00;96981.09;5097736;28;20601;-75
2021/12/27 07:51:59;;;;;;;67.47;20.87;;;;;;;0.46;100.00;96986.25;5094494;28;20660;-75
2021/12/27 07:54:26;;;;;;;70.57;22.10;;;;;;;0.50;100.00;96976.09;5099367;28;20649;-74
2021/12/27 07:56:53;;;;;;;106.67;23.13;;;;;;;0.48;100.00;96983.41;5097399;28;20612;-74
2021/12/27 07:59:20;;;;;;;75.67;20.80;;;;;;;0.52;100.00;96979.31;5096417;28;20600;-74
2021/12/27 08:01:46;;;;;;;74.93;20.30;;;;;;;0.46;100.00;96975.75;5094436;28;21034;-74
2021/12/27 08:04:14;;;;;;;83.90;23.63;;;;;;;0.53;100.00;96979.09;5092764;28;20594;-74
2021/12/27 08:06:41;;;;;;;74.53;20.97;;;;;;;0.56;100.00;96977.06;5094557;28;20618;-75
2021/12/27 08:09:08;;;;;;;82.37;18.60;;;;;;;0.46;100.00;96972.34;5095773;28;20601;-74
2021/12/27 08:11:34;;;;;;;87.07;17.97;;;;;;;0.52;100.00;96966.19;5095744;28;20690;-74
2021/12/27 08:14:01;;;;;;;74.13;20.40;;;;;;;0.46;100.00;96959.97;5085142;28;20605;-74
2021/12/27 08:16:29;;;;;;;81.67;21.20;;;;;;;0.52;100.00;96963.56;5085458;28;21016;-74
2021/12/27 08:18:56;;;;;;;66.83;17.83;;;;;;;0.60;100.00;96970.31;5085299;28;20602;-75
2021/12/27 08:21:25;;;;;;;82.20;21.07;;;;;;;0.65;100.00;96970.47;5092697;28;20632;-73
2021/12/27 08:23:53;;;;;;;71.60;24.27;;;;;;;0.54;100.00;96977.28;5092332;28;20656;-75
2021/12/27 08:26:20;;;;;;;87.43;21.77;;;;;;;0.53;100.00;96973.03;5092565;28;20624;-75
2021/12/27 08:28:49;;;;;;;62.43;16.03;;;;;;;0.55;100.00;96968.38;5094061;28;20993;-75
2021/12/27 08:31:17;;;;;;;86.47;20.67;;;;;;;0.48;100.00;96962.41;5097127;28;20608;-74
2021/12/27 08:33:44;;;;;;;116.90;21.63;;;;;;;0.62;100.00;96958.56;5095632;28;21262;-74
2021/12/27 08:36:11;;;;;;;85.10;21.83;;;;;;;0.53;100.00;96959.91;5093741;28;20637;-74
2021/12/27 08:38:39;;;;;;;92.87;23.40;;;;;;;0.55;100.00;96963.13;5093630;28;20609;-75
2021/12/27 08:41:06;;;;;;;83.23;19.57;;;;;;;0.64;100.00;96959.16;5096298;28;21055;-75
2021/12/27 08:43:33;;;;;;;91.00;20.80;;;;;;;0.58;100.00;96957.41;5096884;28;20646;-74
2021/12/27 08:45:59;;;;;;;86.97;22.83;;;;;;;0.58;100.00;96952.16;5093351;28;20601;-74
2021/12/27 08:48:27;;;;;;;87.43;21.50;;;;;;;0.65;100.00;96949.44;5091823;28;20605;-75
2021/12/27 08:50:53;;;;;;;117.20;30.93;;;;;;;0.81;100.00;96957.47;5094261;28;20663;-74
2021/12/27 08:53:20;;;;;;;64.00;18.00;;;;;;;0.68;100.00;96955.03;5101129;28;20655;-74
2021/12/27 08:55:48;;;;;;;117.60;23.93;;;;;;;0.66;100.00;96946.59;5094960;28;20630;-75
2021/12/27 08:58:33;;;;;;;92.63;21.83;;;;;;;0.68;100.00;96947.16;5091931;28;20613;-74
2021/12/27 09:01:00;;;;;;;97.87;19.60;;;;;;;0.79;100.00;96946.41;5098564;28;20600;-74
2021/12/27 09:03:26;;;;;;;53.77;11.20;;;;;;;0.77;100.00;96945.84;5100894;28;20642;-75
2021/12/27 09:05:53;;;;;;;86.00;22.90;;;;;;;0.85;100.00;96953.38;5097055;28;20604;-75
2021/12/27 09:08:20;;;;;;;69.53;21.73;;;;;;;0.77;100.00;96950.28;5096697;28;20623;-75
2021/12/27 09:10:48;;;;;;;115.30;22.73;;;;;;;0.80;100.00;96952.47;5096556;28;21039;-74
2021/12/27 09:13:14;;;;;;;92.03;27.90;;;;;;;0.80;100.00;96952.47;5099450;28;20640;-75
2021/12/27 09:15:41;;;;;;;100.77;21.90;;;;;;;0.78;100.00;96946.63;5099055;28;20671;-74
2021/12/27 09:18:08;;;;;;;109.03;24.93;;;;;;;0.85;100.00;96953.38;5096191;28;20605;-74
2021/12/27 09:20:34;;;;;;;94.33;21.13;;;;;;;0.84;100.00;96945.72;5096590;28;20627;-75
2021/12/27 09:23:01;;;;;;;84.63;20.97;;;;;;;0.77;100.00;96945.03;5096586;28;20607;-74
2021/12/27 09:25:28;;;;;;;78.30;21.90;;;;;;;0.80;100.00;96948.00;5098640;28;20617;-73
2021/12/27 09:27:56;;;;;;;86.27;21.23;;;;;;;0.90;100.00;96944.81;5098042;28;20596;-74
2021/12/27 09:30:22;;;;;;;102.47;24.73;;;;;;;0.94;100.00;96941.53;5097262;28;20605;-74
2021/12/27 09:32:50;;;;;;;63.07;20.70;;;;;;;0.93;100.00;96939.91;5099229;28;20671;-74
2021/12/27 09:35:17;;;;;;;67.33;19.33;;;;;;;0.81;100.00;96936.47;5100931;28;20608;-74
2021/12/27 09:37:44;;;;;;;87.23;20.40;;;;;;;0.91;100.00;96933.28;5098900;28;20608;-75
2021/12/27 09:40:11;;;;;;;87.53;22.07;;;;;;;0.91;100.00;96947.22;5096673;28;20605;-74
2021/12/27 09:42:38;;;;;;;88.37;23.60;;;;;;;0.95;100.00;96943.13;5097057;28;20617;-75
2021/12/27 09:45:08;;;;;;;98.13;21.97;;;;;;;0.86;100.00;96947.13;5100707;28;20620;-74
2021/12/27 09:47:36;;;;;;;88.27;21.67;;;;;;;0.85;100.00;96936.81;5100105;28;21059;-74
2021/12/27 09:50:05;;;;;;;84.30;21.70;;;;;;;0.92;100.00;96938.34;5096731;28;20638;-74
2021/12/27 09:52:32;;;;;;;65.57;20.37;;;;;;;0.93;100.00;96937.28;5101983;28;20636;-74
2021/12/27 09:55:03;;;;;;;74.80;18.13;;;;;;;0.87;100.00;96934.75;5098848;28;20601;-74
2021/12/27 09:57:31;;;;;;;100.93;23.87;;;;;;;0.99;100.00;96925.88;5100231;28;20610;-74
2021/12/27 09:59:57;;;;;;;78.33;20.63;;;;;;;0.97;100.00;96919.25;5096340;28;20673;-74
2021/12/27 10:02:26;;;;;;;111.90;27.00;;;;;;;0.94;100.00;96917.06;5096760;28;20597;-74
2021/12/27 10:04:53;;;;;;;79.37;21.43;;;;;;;0.97;100.00;96920.03;5099496;28;20628;-75
2021/12/27 10:07:21;;;;;;;71.43;22.07;;;;;;;0.94;100.00;96909.19;5100847;28;20609;-75
2021/12/27 10:09:53;;;;;;;95.40;23.60;;;;;;;1.02;100.00;96916.75;5097571;28;20624;-75
2021/12/27 10:12:21;;;;;;;111.17;24.60;;;;;;;0.95;100.00;96910.78;5094276;28;20686;-74
2021/12/27 10:14:47;;;;;;;92.27;24.40;;;;;;;1.09;100.00;96914.78;5096191;28;20589;-75
2021/12/27 10:17:14;;;;;;;107.00;26.30;;;;;;;1.03;100.00;96908.63;5100029;28;20698;-75
2021/12/27 10:19:42;;;;;;;89.13;20.13;;;;;;;0.97;100.00;96903.47;5099573;28;20592;-75
2021/12/27 10:22:11;;;;;;;84.13;22.73;;;;;;;1.08;100.00;96897.44;5096181;28;20659;-74
2021/12/27 10:24:39;;;;;;;111.80;23.47;;;;;;;1.08;100.00;96890.31;5089799;28;20617;-75
2021/12/27 10:27:06;;;;;;;90.23;22.70;;;;;;;1.18;100.00;96887.13;5098621;28;20613;-75
2021/12/27 10:29:35;;;;;;;119.77;22.63;;;;;;;1.11;100.00;96889.09;5097590;28;20623;-74
2021/12/27 10:32:05;;;;;;;104.00;21.80;;;;;;;1.16;100.00;96885.78;5094232;28;20616;-74
2021/12/27 10:34:34;;;;;;;101.87;22.97;;;;;;;1.29;100.00;96893.44;5095216;28;20688;-74
2021/12/27 10:37:06;;;;;;;100.27;23.17;;;;;;;1.20;100.00;96892.19;5097993;28;20611;-74
2021/12/27 10:39:43;;;;;;;94.47;21.67;;;;;;;1.16;100.00;96889.19;5096691;28;20601;-74
2021/12/27 10:42:13;;;;;;;61.77;19.97;;;;;;;1.26;100.00;96899.16;5094547;28;20605;-75
2021/12/27 10:44:40;;;;;;;93.73;23.47;;;;;;;1.29;100.00;96896.06;5093723;28;20704;-74
2021/12/27 10:47:28;;;;;;;96.00;21.30;;;;;;;1.27;100.00;96892.88;5097802;28;20604;-75
2021/12/27 10:50:01;;;;;;;70.10;21.43;;;;;;;1.28;100.00;96886.56;5094361;28;21233;-73
2021/12/27 10:52:49;;;;;;;96.80;22.70;;;;;;;1.25;100.00;96900.97;5096251;28;20651;-74
2021/12/27 10:55:19;;;;;;;83.07;21.60;;;;;;;1.29;100.00;96902.13;5093071;28;20836;-74
2021/12/27 10:57:45;;;;;;;113.73;20.27;;;;;;;1.28;100.00;96889.19;5095658;28;20601;-73
2021/12/27 11:00:31;;;;;;;79.77;21.13;;;;;;;1.34;100.00;96888.28;5097735;28;20672;-74
2021/12/27 11:03:02;;;;;;;61.43;18.80;;;;;;;1.29;100.00;96896.88;5093157;28;20639;-74
2021/12/27 11:05:29;;;;;;;98.70;23.90;;;;;;;1.36;100.00;96889.66;5093062;28;20590;-74
2021/12/27 11:08:00;;;;;;;88.03;20.97;;;;;;;1.32;100.00;96882.47;5096017;28;20594;-74
2021/12/27 11:10:28;;;;;;;93.13;22.70;;;;;;;1.39;100.00;96881.28;5096782;28;20616;-75
2021/12/27 11:12:59;;;;;;;95.30;22.57;;;;;;;1.42;100.00;96870.34;5093669;28;20663;-75
2021/12/27 11:15:27;;;;;;;49.30;17.60;;;;;;;1.41;100.00;96862.66;5092893;28;20605;-75
2021/12/27 11:17:54;;;;;;;75.50;20.13;;;;;;;1.38;100.00;96868.41;5095970;28;20601;-74
2021/12/27 11:20:21;;;;;;;95.97;24.00;;;;;;;1.45;100.00;96859.38;5095563;28;20608;-73
2021/12/27 11:22:52;;;;;;;116.03;22.23;;;;;;;1.49;100.00;96859.69;5093876;28;20604;-74